Time;durP1;ratioP1;P1;durP2;ratioP2;P2;SDS_P1;SDS_P2;PMS_P1;PMS_P2;Temp;Humidity;BMP_temperature;BMP_pressure;BME280_temperature;BME280_humidity;BME280_pressure;Samples;Min_cycle;Max_cycle;Signal;HPM_P1;HPM_P2
2022/03/21 00:00:47;;;;;;;30.05;15.18;;;;;;;;;;4894087;29;20391;-83
2022/03/21 00:03:15;;;;;;;30.10;16.60;;;;;;;;;;4893732;29;20131;-84
2022/03/21 00:05:42;;;;;;;35.78;20.27;;;;;;;;;;4891986;29;20522;-83
2022/03/21 00:08:11;;;;;;;30.10;16.55;;;;;;;;;;4893816;29;20481;-83
2022/03/21 00:10:38;;;;;;;33.13;19.17;;;;;;;;;;4890221;29;20049;-83
2022/03/21 00:13:05;;;;;;;34.30;17.60;;;;;;;;;;4911359;29;20083;-82
2022/03/21 00:15:32;;;;;;;32.90;16.53;;;;;;;;;;4893311;29;20076;-83
2022/03/21 00:18:01;;;;;;;20.08;12.98;;;;;;;;;;4912513;29;20059;-83
2022/03/21 00:20:29;;;;;;;15.95;8.55;;;;;;;;;;4895850;29;20098;-83
2022/03/21 00:22:56;;;;;;;23.52;11.05;;;;;;;;;;4896094;29;20610;-83
2022/03/21 00:25:23;;;;;;;23.42;13.25;;;;;;;;;;4895440;29;20079;-83
2022/03/21 00:27:53;;;;;;;34.15;17.23;;;;;;;;;;4896270;29;20052;-84
2022/03/21 00:30:20;;;;;;;18.33;8.90;;;;;;;;;;4892827;29;20147;-83
2022/03/21 00:32:48;;;;;;;10.85;6.20;;;;;;;;;;4914768;29;20056;-83
2022/03/21 00:35:17;;;;;;;8.68;5.32;;;;;;;;;;4897202;29;20048;-81
2022/03/21 00:37:44;;;;;;;10.70;6.38;;;;;;;;;;4910227;29;20052;-82
2022/03/21 00:40:12;;;;;;;18.73;10.00;;;;;;;;;;4895525;29;20116;-83
2022/03/21 00:42:40;;;;;;;20.15;10.52;;;;;;;;;;4897462;29;20044;-83
2022/03/21 00:45:09;;;;;;;20.63;9.90;;;;;;;;;;4911209;29;20457;-83
2022/03/21 00:47:36;;;;;;;22.27;12.32;;;;;;;;;;4909123;29;20080;-83
2022/03/21 00:50:03;;;;;;;18.70;10.75;;;;;;;;;;4901408;29;20508;-83
2022/03/21 00:52:41;;;;;;;21.63;10.52;;;;;;;;;;4910497;29;20048;-83
2022/03/21 00:55:09;;;;;;;21.02;11.95;;;;;;;;;;4910190;29;20093;-83
2022/03/21 00:57:36;;;;;;;25.05;12.98;;;;;;;;;;4911739;29;20103;-83
2022/03/21 01:00:08;;;;;;;22.85;10.60;;;;;;;;;;4895886;29;20146;-83
2022/03/21 01:02:35;;;;;;;25.15;11.65;;;;;;;;;;4895685;29;20048;-83
2022/03/21 01:05:03;;;;;;;25.83;13.70;;;;;;;;;;4911706;29;20052;-83
2022/03/21 01:07:29;;;;;;;14.68;8.05;;;;;;;;;;4893925;29;20452;-85
2022/03/21 01:09:56;;;;;;;21.90;9.83;;;;;;;;;;4909612;29;20076;-83
2022/03/21 01:12:23;;;;;;;13.43;6.93;;;;;;;;;;4900103;29;20060;-83
2022/03/21 01:14:49;;;;;;;12.73;7.75;;;;;;;;;;4911602;29;20082;-83
2022/03/21 01:17:16;;;;;;;15.30;8.32;;;;;;;;;;4912056;29;20501;-83
2022/03/21 01:19:44;;;;;;;21.35;11.15;;;;;;;;;;4896924;29;20140;-83
2022/03/21 01:22:10;;;;;;;21.10;9.07;;;;;;;;;;4893101;29;20147;-82
2022/03/21 01:24:38;;;;;;;10.70;6.73;;;;;;;;;;4910377;29;20139;-83
2022/03/21 01:27:07;;;;;;;18.73;9.82;;;;;;;;;;4894132;29;20487;-82
2022/03/21 01:29:34;;;;;;;19.02;9.77;;;;;;;;;;4911851;29;20083;-82
2022/03/21 01:32:01;;;;;;;18.95;11.43;;;;;;;;;;4910692;29;20191;-83
2022/03/21 01:34:28;;;;;;;18.13;10.27;;;;;;;;;;4913121;29;20484;-83
2022/03/21 01:36:55;;;;;;;20.95;11.00;;;;;;;;;;4890881;29;20104;-82
2022/03/21 01:39:22;;;;;;;16.02;8.88;;;;;;;;;;4895677;29;20076;-83
2022/03/21 01:41:48;;;;;;;22.27;11.95;;;;;;;;;;4895008;29;20044;-83
2022/03/21 01:44:17;;;;;;;22.17;12.43;;;;;;;;;;4910087;29;20135;-82
2022/03/21 01:46:44;;;;;;;17.25;10.23;;;;;;;;;;4892810;29;20572;-82
2022/03/21 01:49:11;;;;;;;19.10;10.32;;;;;;;;;;4912173;29;20075;-83
2022/03/21 01:51:38;;;;;;;21.65;10.32;;;;;;;;;;4910374;29;20129;-83
2022/03/21 01:56:56;;;;;;;22.05;11.65;;;;;;;;;;4911628;29;20056;-84
2022/03/21 01:59:30;;;;;;;26.38;12.43;;;;;;;;;;4895881;29;20059;-83
2022/03/21 02:01:56;;;;;;;29.17;14.20;;;;;;;;;;4897562;29;20080;-83
2022/03/21 02:04:23;;;;;;;20.40;9.10;;;;;;;;;;4899744;29;20478;-83
2022/03/21 02:06:53;;;;;;;21.65;11.52;;;;;;;;;;4914834;29;20080;-83
2022/03/21 02:09:20;;;;;;;23.55;13.43;;;;;;;;;;4916281;29;20090;-83
2022/03/21 02:11:47;;;;;;;31.55;16.05;;;;;;;;;;4897776;29;20104;-84
2022/03/21 02:14:13;;;;;;;27.20;14.30;;;;;;;;;;4915315;29;20075;-83
2022/03/21 02:16:40;;;;;;;25.83;14.18;;;;;;;;;;4897475;29;20348;-82
2022/03/21 02:19:08;;;;;;;;;;;;;;;;;;4914643;29;20063;-83
2022/03/21 02:21:38;;;;;;;20.17;10.43;;;;;;;;;;4896526;29;20344;-83
2022/03/21 02:24:08;;;;;;;28.30;13.25;;;;;;;;;;4898627;29;20479;-83
2022/03/21 02:26:35;;;;;;;28.23;14.77;;;;;;;;;;4915529;29;20052;-83
2022/03/21 02:29:03;;;;;;;29.45;14.88;;;;;;;;;;4910843;29;20131;-83
2022/03/21 02:31:32;;;;;;;20.80;11.30;;;;;;;;;;4916360;29;20056;-84
2022/03/21 02:33:59;;;;;;;23.75;11.80;;;;;;;;;;4897111;29;21913;-83
2022/03/21 02:36:27;;;;;;;22.73;12.02;;;;;;;;;;4915318;29;20121;-84
2022/03/21 02:38:57;;;;;;;27.45;13.30;;;;;;;;;;4915916;29;20150;-84
2022/03/21 02:41:23;;;;;;;31.50;16.02;;;;;;;;;;4898254;29;20084;-84
2022/03/21 02:43:50;;;;;;;25.53;13.40;;;;;;;;;;4915577;29;20144;-83
2022/03/21 02:46:17;;;;;;;20.55;10.50;;;;;;;;;;4900937;29;20056;-84
2022/03/21 02:48:45;;;;;;;28.58;14.57;;;;;;;;;;4916781;29;20040;-83
2022/03/21 02:51:12;;;;;;;34.28;16.55;;;;;;;;;;4896571;29;20381;-84
2022/03/21 02:53:41;;;;;;;28.73;14.70;;;;;;;;;;4899748;29;20500;-83
2022/03/21 02:56:07;;;;;;;23.60;12.35;;;;;;;;;;4912023;29;20079;-84
2022/03/21 02:58:34;;;;;;;35.17;16.93;;;;;;;;;;4898937;29;20056;-83
2022/03/21 03:01:12;;;;;;;27.80;15.25;;;;;;;;;;4913581;29;20339;-83
2022/03/21 03:03:39;;;;;;;33.50;18.33;;;;;;;;;;4915701;29;20139;-83
2022/03/21 03:06:05;;;;;;;28.92;12.68;;;;;;;;;;4896156;29;20150;-83
2022/03/21 03:08:33;;;;;;;32.05;16.88;;;;;;;;;;4913991;29;20115;-82
2022/03/21 03:11:00;;;;;;;31.58;16.48;;;;;;;;;;4897457;29;20083;-83
2022/03/21 03:13:26;;;;;;;24.70;12.70;;;;;;;;;;4895312;29;20098;-84
2022/03/21 03:15:53;;;;;;;34.00;17.23;;;;;;;;;;4898097;29;20406;-83
2022/03/21 03:18:21;;;;;;;30.83;15.40;;;;;;;;;;4913683;29;20215;-83
2022/03/21 03:20:52;;;;;;;24.63;12.73;;;;;;;;;;4896397;29;20144;-84
2022/03/21 03:23:19;;;;;;;28.67;15.23;;;;;;;;;;4897556;29;20524;-83
2022/03/21 03:25:46;;;;;;;;;;;;;;;;;;4913656;29;20135;-83
2022/03/21 03:28:13;;;;;;;30.48;15.73;;;;;;;;;;4894143;29;19934;-83
2022/03/21 03:31:00;;;;;;;35.47;17.33;;;;;;;;;;4896742;29;20078;-83
2022/03/21 03:33:27;;;;;;;38.15;17.65;;;;;;;;;;4915467;29;20052;-83
2022/03/21 03:35:54;;;;;;;32.45;17.73;;;;;;;;;;4895977;29;20124;-84
2022/03/21 03:38:20;;;;;;;38.87;19.30;;;;;;;;;;4895187;29;20049;-82
2022/03/21 03:40:47;;;;;;;27.17;13.20;;;;;;;;;;4895403;29;21194;-83
2022/03/21 03:43:17;;;;;;;33.78;17.65;;;;;;;;;;4896465;29;20057;-84
2022/03/21 03:45:44;;;;;;;27.93;14.67;;;;;;;;;;4899396;29;20076;-84
2022/03/21 03:48:11;;;;;;;28.45;13.48;;;;;;;;;;4897037;29;20142;-83
2022/03/21 03:50:38;;;;;;;29.13;14.93;;;;;;;;;;4914013;29;20087;-82
2022/03/21 03:53:04;;;;;;;24.13;12.93;;;;;;;;;;4900497;29;20083;-86
2022/03/21 03:55:31;;;;;;;27.57;14.73;;;;;;;;;;4901332;29;20135;-84
2022/03/21 03:58:04;;;;;;;27.30;13.47;;;;;;;;;;4897668;29;20083;-83
2022/03/21 04:00:31;;;;;;;24.13;13.13;;;;;;;;;;4911869;29;20044;-83
2022/03/21 04:05:44;;;;;;;28.37;14.50;;;;;;;;;;4911218;29;20053;-85
2022/03/21 04:08:10;;;;;;;29.87;14.10;;;;;;;;;;4902135;29;20059;-86
2022/03/21 04:10:37;;;;;;;30.50;14.93;;;;;;;;;;4896611;29;20564;-85
2022/03/21 04:13:10;;;;;;;27.77;15.07;;;;;;;;;;4914090;29;20140;-85
2022/03/21 04:15:37;;;;;;;24.27;14.13;;;;;;;;;;4901153;29;20095;-85
2022/03/21 04:18:04;;;;;;;25.33;13.63;;;;;;;;;;4897433;29;20300;-85
2022/03/21 04:20:36;;;;;;;37.27;15.63;;;;;;;;;;4913238;29;20143;-85
2022/03/21 04:23:03;;;;;;;29.03;14.93;;;;;;;;;;4896530;29;20055;-86
2022/03/21 04:25:30;;;;;;;36.60;16.55;;;;;;;;;;4912919;29;20397;-86
2022/03/21 04:28:08;;;;;;;32.47;16.57;;;;;;;;;;4913279;29;20044;-85
2022/03/21 04:30:34;;;;;;;33.80;16.87;;;;;;;;;;4898514;29;20087;-85
2022/03/21 04:33:01;;;;;;;27.90;13.30;;;;;;;;;;4894094;29;20087;-85
2022/03/21 04:35:27;;;;;;;25.85;13.73;;;;;;;;;;4898834;29;20076;-85
2022/03/21 04:37:55;;;;;;;35.47;18.55;;;;;;;;;;4896719;29;20456;-85
2022/03/21 04:40:23;;;;;;;33.45;17.60;;;;;;;;;;4898299;29;20473;-84
2022/03/21 04:42:50;;;;;;;34.17;17.27;;;;;;;;;;4894825;29;20086;-83
2022/03/21 04:45:17;;;;;;;37.42;16.77;;;;;;;;;;4896664;29;20064;-84
2022/03/21 04:47:44;;;;;;;37.93;19.30;;;;;;;;;;4913369;29;20060;-85
2022/03/21 04:50:13;;;;;;;38.80;17.97;;;;;;;;;;4913096;29;20450;-85
2022/03/21 04:52:39;;;;;;;36.35;17.77;;;;;;;;;;4896785;29;20075;-86
2022/03/21 04:55:08;;;;;;;40.67;19.50;;;;;;;;;;4914728;29;20072;-85
2022/03/21 04:57:42;;;;;;;34.13;16.40;;;;;;;;;;4898321;29;20048;-85
2022/03/21 05:00:08;;;;;;;29.80;12.65;;;;;;;;;;4889488;29;20557;-86
2022/03/21 05:02:35;;;;;;;24.73;11.82;;;;;;;;;;4911711;29;20466;-84
2022/03/21 05:05:02;;;;;;;29.58;14.32;;;;;;;;;;4897165;29;20669;-84
2022/03/21 05:07:29;;;;;;;24.00;12.27;;;;;;;;;;4911877;29;20194;-85
2022/03/21 05:09:55;;;;;;;34.10;15.15;;;;;;;;;;4895949;29;20112;-84
2022/03/21 05:12:23;;;;;;;28.65;13.15;;;;;;;;;;4910561;29;20524;-85
2022/03/21 05:14:49;;;;;;;37.22;16.80;;;;;;;;;;4911432;29;20080;-84
2022/03/21 05:17:17;;;;;;;25.00;12.60;;;;;;;;;;4898318;29;20064;-85
2022/03/21 05:19:50;;;;;;;34.80;16.43;;;;;;;;;;4897504;29;20092;-84
2022/03/21 05:22:19;;;;;;;27.67;15.07;;;;;;;;;;4910511;29;20171;-84
2022/03/21 05:35:55;;;;;;;28.33;15.50;;;;;;;;;;4911858;29;20135;-84
2022/03/21 05:38:23;;;;;;;28.43;15.20;;;;;;;;;;4896484;29;20052;-84
2022/03/21 05:40:49;;;;;;;30.03;14.57;;;;;;;;;;4912760;29;20076;-84
2022/03/21 05:43:16;;;;;;;26.13;12.23;;;;;;;;;;4896559;29;20085;-84
2022/03/21 05:45:47;;;;;;;23.93;12.70;;;;;;;;;;4891774;29;20138;-84
2022/03/21 05:50:59;;;;;;;33.23;13.83;;;;;;;;;;4908580;29;20135;-84
2022/03/21 05:53:25;;;;;;;29.00;16.27;;;;;;;;;;4893457;29;20060;-84
2022/03/21 05:55:52;;;;;;;26.57;13.77;;;;;;;;;;4913388;29;20578;-85
2022/03/21 05:58:18;;;;;;;28.15;13.85;;;;;;;;;;4908616;29;20056;-84
2022/03/21 06:00:45;;;;;;;21.57;10.50;;;;;;;;;;4899974;29;20052;-85
2022/03/21 06:03:12;;;;;;;26.20;13.60;;;;;;;;;;4898281;29;20059;-84
2022/03/21 06:05:45;;;;;;;31.13;15.10;;;;;;;;;;4914357;29;20088;-84
2022/03/21 06:08:12;;;;;;;37.38;15.50;;;;;;;;;;4896727;29;20443;-84
2022/03/21 06:10:38;;;;;;;26.63;14.97;;;;;;;;;;4897745;29;20080;-83
2022/03/21 06:13:13;;;;;;;28.50;14.57;;;;;;;;;;4912573;29;20056;-83
2022/03/21 06:15:40;;;;;;;23.70;14.33;;;;;;;;;;4901153;29;20143;-83
2022/03/21 06:18:10;;;;;;;26.98;12.60;;;;;;;;;;4912825;29;20083;-83
2022/03/21 06:20:40;;;;;;;32.60;13.65;;;;;;;;;;4913053;29;20157;-85
2022/03/21 06:23:07;;;;;;;31.88;15.90;;;;;;;;;;4911277;29;20784;-84
2022/03/21 06:25:35;;;;;;;26.77;13.98;;;;;;;;;;4912127;29;20074;-84
2022/03/21 06:28:02;;;;;;;28.55;12.13;;;;;;;;;;4893529;29;20055;-84
2022/03/21 06:30:29;;;;;;;19.35;9.85;;;;;;;;;;4893587;29;20116;-84
2022/03/21 06:32:55;;;;;;;26.67;12.93;;;;;;;;;;4890411;29;20148;-84
2022/03/21 06:35:23;;;;;;;;;;;;;;;;;;4891161;29;20090;-84
2022/03/21 06:37:50;;;;;;;21.35;12.07;;;;;;;;;;4913544;29;19923;-84
2022/03/21 06:40:18;;;;;;;31.10;14.85;;;;;;;;;;4901631;29;20060;-83
2022/03/21 06:42:51;;;;;;;34.13;15.93;;;;;;;;;;4910919;29;20131;-85
2022/03/21 06:45:18;;;;;;;38.35;17.08;;;;;;;;;;4913046;29;20135;-84
2022/03/21 06:47:44;;;;;;;23.23;12.45;;;;;;;;;;4894409;29;20082;-83
2022/03/21 06:50:12;;;;;;;32.30;15.85;;;;;;;;;;4915425;29;20083;-84
2022/03/21 06:52:39;;;;;;;38.42;16.55;;;;;;;;;;4898753;29;20106;-84
2022/03/21 06:55:07;;;;;;;28.48;15.55;;;;;;;;;;4915867;29;20421;-84
2022/03/21 06:57:36;;;;;;;35.28;16.80;;;;;;;;;;4915871;29;20064;-84
2022/03/21 07:00:03;;;;;;;34.23;16.90;;;;;;;;;;4914511;29;20126;-83
2022/03/21 07:02:29;;;;;;;33.83;17.33;;;;;;;;;;4899273;29;20052;-83
2022/03/21 07:05:03;;;;;;;26.27;15.15;;;;;;;;;;4902232;29;20059;-83
2022/03/21 07:07:30;;;;;;;28.35;15.75;;;;;;;;;;4896222;29;20075;-84
2022/03/21 07:09:56;;;;;;;36.05;17.73;;;;;;;;;;4916416;29;20079;-84
2022/03/21 07:12:23;;;;;;;27.88;13.20;;;;;;;;;;4915666;29;20138;-84
2022/03/21 07:14:50;;;;;;;30.77;16.05;;;;;;;;;;4899414;29;20084;-83
2022/03/21 07:17:20;;;;;;;36.53;17.50;;;;;;;;;;4897396;29;20413;-83
2022/03/21 07:19:47;;;;;;;35.90;18.25;;;;;;;;;;4912433;29;20138;-83
2022/03/21 07:22:14;;;;;;;33.88;17.17;;;;;;;;;;4898770;29;20123;-83
2022/03/21 07:24:40;;;;;;;37.22;16.67;;;;;;;;;;4899344;29;20576;-83
2022/03/21 07:27:08;;;;;;;31.98;16.45;;;;;;;;;;4914549;29;20098;-83
2022/03/21 07:29:34;;;;;;;29.65;15.15;;;;;;;;;;4916285;29;20512;-84
2022/03/21 07:32:01;;;;;;;23.50;14.23;;;;;;;;;;4892794;29;20095;-83
2022/03/21 07:34:28;;;;;;;21.25;12.18;;;;;;;;;;4895757;29;20787;-84
2022/03/21 07:36:54;;;;;;;24.95;14.13;;;;;;;;;;4916321;29;20108;-84
2022/03/21 07:39:21;;;;;;;31.20;15.27;;;;;;;;;;4897733;29;20048;-84
2022/03/21 07:41:48;;;;;;;33.65;15.13;;;;;;;;;;4898809;29;20132;-84
2022/03/21 07:47:17;;;;;;;31.10;15.02;;;;;;;;;;4913215;29;20453;-84
2022/03/21 07:47:22;;;;;;;25.58;14.05;;;;;;;;;;4912181;29;20134;-84
2022/03/21 07:49:50;;;;;;;26.35;15.68;;;;;;;;;;4900181;29;20056;-84
2022/03/21 07:52:23;;;;;;;29.83;15.90;;;;;;;;;;4913728;29;20555;-83
2022/03/21 07:54:55;;;;;;;26.15;14.60;;;;;;;;;;4898491;29;20143;-84
2022/03/21 07:57:22;;;;;;;31.35;14.00;;;;;;;;;;4891415;29;20111;-83
2022/03/21 07:59:55;;;;;;;23.95;13.25;;;;;;;;;;4916098;29;20154;-84
2022/03/21 08:02:22;;;;;;;24.48;13.20;;;;;;;;;;4895440;29;20301;-84
2022/03/21 08:04:50;;;;;;;29.38;14.05;;;;;;;;;;4913543;29;20080;-84
2022/03/21 08:07:25;;;;;;;23.20;14.30;;;;;;;;;;4913308;29;20064;-84
2022/03/21 08:09:51;;;;;;;29.88;14.95;;;;;;;;;;4916853;29;20095;-84
2022/03/21 08:12:19;;;;;;;24.88;14.27;;;;;;;;;;4914386;29;20083;-83
2022/03/21 08:14:52;;;;;;;25.60;13.80;;;;;;;;;;4899179;29;20080;-85
2022/03/21 08:17:19;;;;;;;23.63;13.45;;;;;;;;;;4897893;29;20123;-85
2022/03/21 08:19:45;;;;;;;29.45;13.43;;;;;;;;;;4898818;29;20049;-85
2022/03/21 08:22:20;;;;;;;23.50;12.57;;;;;;;;;;4902662;29;20044;-84
2022/03/21 08:24:48;;;;;;;23.00;12.80;;;;;;;;;;4891972;29;20052;-84
2022/03/21 08:27:15;;;;;;;21.20;12.75;;;;;;;;;;4912247;29;20135;-85
2022/03/21 08:29:42;;;;;;;23.40;11.70;;;;;;;;;;4899732;29;20758;-85
2022/03/21 08:32:09;;;;;;;23.98;12.30;;;;;;;;;;4913189;29;20190;-85
2022/03/21 08:34:35;;;;;;;24.50;13.10;;;;;;;;;;4890460;29;20052;-85
2022/03/21 08:37:03;;;;;;;27.80;13.45;;;;;;;;;;4890644;29;20564;-84
2022/03/21 08:39:29;;;;;;;25.77;12.80;;;;;;;;;;4913875;29;20584;-85
2022/03/21 08:41:56;;;;;;;23.10;12.35;;;;;;;;;;4915130;29;20052;-84
2022/03/21 08:44:30;;;;;;;24.45;11.85;;;;;;;;;;4902392;29;20056;-84
2022/03/21 08:46:56;;;;;;;27.17;12.98;;;;;;;;;;4897415;29;20127;-85
2022/03/21 08:49:33;;;;;;;23.13;13.38;;;;;;;;;;4898260;29;20123;-84
2022/03/21 08:52:06;;;;;;;24.00;13.60;;;;;;;;;;4914326;29;20079;-84
2022/03/21 08:54:33;;;;;;;28.88;14.35;;;;;;;;;;4897613;29;20084;-85
2022/03/21 08:56:59;;;;;;;22.77;12.52;;;;;;;;;;4894785;29;20142;-85
2022/03/21 08:59:27;;;;;;;19.67;11.88;;;;;;;;;;4899649;29;20052;-85
2022/03/21 09:01:53;;;;;;;24.38;12.80;;;;;;;;;;4897758;29;20107;-85
2022/03/21 09:04:20;;;;;;;20.10;12.32;;;;;;;;;;4897410;29;20082;-85
2022/03/21 09:06:53;;;;;;;22.20;12.88;;;;;;;;;;4913906;29;20076;-85
2022/03/21 09:09:20;;;;;;;21.85;13.15;;;;;;;;;;4902299;29;20091;-84
2022/03/21 09:11:53;;;;;;;30.75;13.40;;;;;;;;;;4897466;29;20048;-85
2022/03/21 09:14:22;;;;;;;20.17;12.43;;;;;;;;;;4892857;29;20136;-84
2022/03/21 09:16:50;;;;;;;23.67;11.77;;;;;;;;;;4913556;29;20485;-86
2022/03/21 09:19:18;;;;;;;20.45;12.35;;;;;;;;;;4912660;29;20572;-85
2022/03/21 09:21:52;;;;;;;19.65;11.73;;;;;;;;;;4894853;29;20056;-85
2022/03/21 09:24:19;;;;;;;22.08;12.38;;;;;;;;;;4896356;29;20078;-85
2022/03/21 09:26:46;;;;;;;23.07;12.43;;;;;;;;;;4890743;29;20131;-85
2022/03/21 09:29:26;;;;;;;23.70;12.85;;;;;;;;;;4891540;29;20117;-85
2022/03/21 09:31:55;;;;;;;19.75;12.75;;;;;;;;;;4893439;29;20521;-86
2022/03/21 09:34:22;;;;;;;20.27;11.65;;;;;;;;;;4880920;29;20131;-85
2022/03/21 09:36:48;;;;;;;19.88;11.60;;;;;;;;;;4893763;29;20658;-85
2022/03/21 09:39:15;;;;;;;22.52;11.80;;;;;;;;;;4878136;29;20065;-85
2022/03/21 09:41:44;;;;;;;25.85;12.82;;;;;;;;;;4875666;29;20461;-85
2022/03/21 09:44:11;;;;;;;21.58;11.93;;;;;;;;;;4879078;29;20100;-84
2022/03/21 09:46:39;;;;;;;22.38;12.27;;;;;;;;;;4891337;29;20052;-86
2022/03/21 09:49:14;;;;;;;20.00;12.23;;;;;;;;;;4876473;29;20513;-85
2022/03/21 09:51:42;;;;;;;20.25;12.60;;;;;;;;;;4874095;29;20085;-85
2022/03/21 09:54:09;;;;;;;17.73;12.10;;;;;;;;;;4872332;29;20104;-85
2022/03/21 09:56:42;;;;;;;23.38;13.02;;;;;;;;;;4884732;29;20131;-85
2022/03/21 09:59:09;;;;;;;23.45;12.77;;;;;;;;;;4874052;29;20144;-85
2022/03/21 10:01:36;;;;;;;24.63;12.68;;;;;;;;;;4873925;29;20153;-86
2022/03/21 10:04:10;;;;;;;21.90;12.13;;;;;;;;;;4880843;29;20052;-85
2022/03/21 10:06:39;;;;;;;21.92;12.57;;;;;;;;;;4876324;29;20100;-86
2022/03/21 10:09:16;;;;;;;23.23;11.60;;;;;;;;;;4893915;29;20598;-86
2022/03/21 10:11:50;;;;;;;19.30;11.57;;;;;;;;;;4895024;29;20053;-86
2022/03/21 10:14:21;;;;;;;22.08;12.07;;;;;;;;;;4895407;29;20497;-86
2022/03/21 10:16:51;;;;;;;20.95;11.55;;;;;;;;;;4892618;29;20135;-86
2022/03/21 10:19:18;;;;;;;20.58;12.10;;;;;;;;;;4895664;29;20052;-85
2022/03/21 10:21:59;;;;;;;19.80;11.75;;;;;;;;;;4876102;29;20067;-87
2022/03/21 10:24:26;;;;;;;23.45;12.10;;;;;;;;;;4897541;29;20560;-86
2022/03/21 10:26:53;;;;;;;20.90;12.35;;;;;;;;;;4898422;29;20139;-86
2022/03/21 10:29:20;;;;;;;22.02;12.85;;;;;;;;;;4882300;29;20076;-86
2022/03/21 10:31:48;;;;;;;19.40;11.25;;;;;;;;;;4876063;29;20145;-85
2022/03/21 10:34:17;;;;;;;;;;;;;;;;;;4883210;29;20113;-85
2022/03/21 10:37:00;;;;;;;18.80;9.77;;;;;;;;;;4896398;29;19927;-87
2022/03/21 10:39:28;;;;;;;21.90;11.57;;;;;;;;;;4894560;29;20569;-86
2022/03/21 10:42:03;;;;;;;22.73;12.35;;;;;;;;;;4897674;29;20481;-86
2022/03/21 10:44:30;;;;;;;24.83;11.95;;;;;;;;;;4881647;29;20072;-87
2022/03/21 10:47:00;;;;;;;21.15;11.75;;;;;;;;;;4877763;29;20064;-86
2022/03/21 10:49:43;;;;;;;18.52;11.07;;;;;;;;;;4884653;29;20091;-86
2022/03/21 10:52:17;;;;;;;19.00;11.70;;;;;;;;;;4874424;29;20132;-86
2022/03/21 10:54:50;;;;;;;21.50;12.60;;;;;;;;;;4896230;29;20111;-86
2022/03/21 10:57:33;;;;;;;20.30;11.75;;;;;;;;;;4885459;29;20500;-86
2022/03/21 11:00:12;;;;;;;21.85;12.00;;;;;;;;;;4898314;29;20064;-86
2022/03/21 11:02:57;;;;;;;17.88;11.63;;;;;;;;;;4896139;29;20060;-86
2022/03/21 11:05:25;;;;;;;18.95;11.10;;;;;;;;;;4898266;29;20135;-85
2022/03/21 11:07:58;;;;;;;18.90;11.65;;;;;;;;;;4881641;29;20132;-86
2022/03/21 11:10:26;;;;;;;24.52;12.80;;;;;;;;;;4882995;29;20118;-86
2022/03/21 11:12:57;;;;;;;22.92;12.38;;;;;;;;;;4895612;29;20127;-87
2022/03/21 11:15:28;;;;;;;20.20;11.82;;;;;;;;;;4877217;29;20053;-86
2022/03/21 11:17:55;;;;;;;20.67;12.38;;;;;;;;;;4880474;29;20132;-86
2022/03/21 11:20:22;;;;;;;20.75;11.23;;;;;;;;;;4898971;29;20132;-85
2022/03/21 11:22:53;;;;;;;21.20;12.35;;;;;;;;;;4883240;29;20060;-87
2022/03/21 11:25:21;;;;;;;19.83;11.27;;;;;;;;;;4884539;29;20520;-87
2022/03/21 11:28:06;;;;;;;19.35;12.38;;;;;;;;;;4881155;29;20072;-86
2022/03/21 11:30:33;;;;;;;22.70;12.15;;;;;;;;;;4911654;29;20060;-86
2022/03/21 11:33:12;;;;;;;20.33;11.65;;;;;;;;;;4892084;29;20132;-87
2022/03/21 11:35:40;;;;;;;21.67;11.88;;;;;;;;;;4917518;29;20083;-86
2022/03/21 11:38:36;;;;;;;23.60;12.70;;;;;;;;;;4898297;29;20067;-86
2022/03/21 11:41:14;;;;;;;19.67;12.18;;;;;;;;;;4909934;29;20060;-86
2022/03/21 11:43:42;;;;;;;21.38;11.73;;;;;;;;;;4917328;29;20135;-87
2022/03/21 11:46:08;;;;;;;;;;;;;;;;;;4899613;29;20051;-87
2022/03/21 11:48:42;;;;;;;19.52;11.93;;;;;;;;;;4897879;29;19926;-86
2022/03/21 11:51:14;;;;;;;17.15;11.65;;;;;;;;;;4917561;29;20123;-86
2022/03/21 11:53:44;;;;;;;17.05;11.65;;;;;;;;;;4914607;29;20083;-87
2022/03/21 11:56:36;;;;;;;21.98;11.60;;;;;;;;;;4918807;29;20111;-87
2022/03/21 11:59:03;;;;;;;19.73;12.23;;;;;;;;;;4898379;29;20135;-87
2022/03/21 12:01:31;;;;;;;18.52;12.10;;;;;;;;;;4902978;29;20174;-87
2022/03/21 12:04:16;;;;;;;18.60;11.77;;;;;;;;;;4916679;29;20055;-87
2022/03/21 12:06:45;;;;;;;21.20;11.75;;;;;;;;;;4918409;29;20471;-87
2022/03/21 12:09:12;;;;;;;20.52;12.15;;;;;;;;;;4900300;29;20087;-86
2022/03/21 12:11:39;;;;;;;20.45;12.25;;;;;;;;;;4899289;29;20048;-86
2022/03/21 12:14:19;;;;;;;20.60;12.32;;;;;;;;;;4896002;29;20111;-87
2022/03/21 12:16:46;;;;;;;22.55;11.85;;;;;;;;;;4916275;29;20103;-87
2022/03/21 12:19:25;;;;;;;22.37;13.10;;;;;;;;;;4918189;29;20078;-85
2022/03/21 12:22:11;;;;;;;20.92;12.45;;;;;;;;;;4912945;29;20084;-87
2022/03/21 12:24:49;;;;;;;18.67;10.83;;;;;;;;;;4901419;29;20048;-86
2022/03/21 12:27:29;;;;;;;23.13;11.85;;;;;;;;;;4918363;29;20056;-86
2022/03/21 12:30:29;;;;;;;20.15;11.95;;;;;;;;;;4898804;28;20143;-87
2022/03/21 12:32:55;;;;;;;20.80;12.32;;;;;;;;;;4910993;29;20056;-86
2022/03/21 12:35:32;;;;;;;18.50;12.52;;;;;;;;;;4914093;29;20120;-87
2022/03/21 12:38:06;;;;;;;19.30;11.43;;;;;;;;;;4913514;29;20404;-86
2022/03/21 12:40:34;;;;;;;18.65;11.90;;;;;;;;;;4915462;29;20186;-87
2022/03/21 12:43:01;;;;;;;16.20;11.07;;;;;;;;;;4898475;29;20540;-86
2022/03/21 12:45:31;;;;;;;19.00;11.02;;;;;;;;;;4898427;29;20131;-86
2022/03/21 12:48:05;;;;;;;20.75;11.13;;;;;;;;;;4900088;29;20147;-87
2022/03/21 12:50:32;;;;;;;19.42;10.05;;;;;;;;;;4898187;29;20131;-87
2022/03/21 12:53:00;;;;;;;17.45;11.07;;;;;;;;;;4898929;29;20131;-86
2022/03/21 12:55:27;;;;;;;18.25;11.63;;;;;;;;;;4913928;29;20122;-86
2022/03/21 12:57:58;;;;;;;18.83;11.88;;;;;;;;;;4899994;29;20528;-87
2022/03/21 13:00:31;;;;;;;19.90;11.63;;;;;;;;;;4898899;29;20568;-86
2022/03/21 13:03:05;;;;;;;18.65;11.30;;;;;;;;;;4914081;29;20048;-86
2022/03/21 13:11:36;;;;;;;18.02;9.82;;;;;;;;;;4911720;29;20138;-86
2022/03/21 13:14:14;;;;;;;15.00;9.70;;;;;;;;;;4898154;29;20080;-86
2022/03/21 13:16:48;;;;;;;13.80;10.05;;;;;;;;;;4898053;29;20083;-86
2022/03/21 13:19:22;;;;;;;16.58;9.95;;;;;;;;;;4915529;29;20052;-87
2022/03/21 13:21:50;;;;;;;17.52;10.65;;;;;;;;;;4896349;29;20099;-87
2022/03/21 13:24:34;;;;;;;13.95;9.63;;;;;;;;;;4914200;29;20139;-86
2022/03/21 13:27:02;;;;;;;17.15;10.30;;;;;;;;;;4891598;29;20102;-87
2022/03/21 13:29:28;;;;;;;20.75;10.13;;;;;;;;;;4896792;29;20206;-86
2022/03/21 13:31:55;;;;;;;21.17;10.43;;;;;;;;;;4913973;29;20083;-86
2022/03/21 13:34:22;;;;;;;15.02;9.73;;;;;;;;;;4903506;29;20056;-86
2022/03/21 13:36:48;;;;;;;17.10;9.87;;;;;;;;;;4912891;29;20107;-87
2022/03/21 13:39:16;;;;;;;18.05;9.40;;;;;;;;;;4896650;29;20392;-86
2022/03/21 13:41:52;;;;;;;17.80;9.73;;;;;;;;;;4912578;29;20135;-87
2022/03/21 13:44:19;;;;;;;16.33;10.25;;;;;;;;;;4914170;29;20083;-86
2022/03/21 13:47:05;;;;;;;16.27;9.80;;;;;;;;;;4914685;29;20154;-86
2022/03/21 13:49:41;;;;;;;14.52;9.07;;;;;;;;;;4889440;29;20052;-87
2022/03/21 13:52:08;;;;;;;14.88;9.65;;;;;;;;;;4913973;29;20055;-86
2022/03/21 13:54:49;;;;;;;15.30;8.90;;;;;;;;;;4913244;29;20079;-85
2022/03/21 13:57:20;;;;;;;14.30;8.77;;;;;;;;;;4914887;29;20051;-87
2022/03/21 13:59:59;;;;;;;12.40;8.35;;;;;;;;;;4912846;29;20473;-87
2022/03/21 14:02:29;;;;;;;14.98;8.60;;;;;;;;;;4914060;29;20402;-86
2022/03/21 14:05:11;;;;;;;13.43;8.02;;;;;;;;;;4896095;29;20051;-87
2022/03/21 14:07:38;;;;;;;10.75;7.97;;;;;;;;;;4897975;29;20056;-86
2022/03/21 14:10:12;;;;;;;17.00;8.05;;;;;;;;;;4895095;29;20090;-87
2022/03/21 14:12:40;;;;;;;12.95;8.20;;;;;;;;;;4913177;29;20060;-87
2022/03/21 14:15:06;;;;;;;;;;;;;;;;;;4902181;29;20147;-87
2022/03/21 14:17:33;;;;;;;12.82;8.30;;;;;;;;;;4910015;29;19954;-86
2022/03/21 14:20:04;;;;;;;11.85;7.53;;;;;;;;;;4911121;29;20051;-86
2022/03/21 14:22:30;;;;;;;;;;;;;;;;;;4911627;29;20081;-87
2022/03/21 14:26:29;;;;;;;13.95;8.30;;;;;;;;;;4891717;29;19926;-87
2022/03/21 14:27:52;;;;;;;14.90;8.40;;;;;;;;;;4912454;29;20087;-87
2022/03/21 14:30:18;;;;;;;12.93;7.90;;;;;;;;;;4896334;29;20075;-87
2022/03/21 14:32:46;;;;;;;16.17;8.07;;;;;;;;;;4887703;29;20543;-87
2022/03/21 14:35:13;;;;;;;13.63;8.02;;;;;;;;;;4912045;29;20148;-87
2022/03/21 14:37:39;;;;;;;12.52;7.88;;;;;;;;;;4897802;29;20099;-87
2022/03/21 14:40:06;;;;;;;14.45;8.70;;;;;;;;;;4913265;29;20139;-87
2022/03/21 14:42:33;;;;;;;15.73;8.25;;;;;;;;;;4895954;29;20596;-86
2022/03/21 14:45:02;;;;;;;11.27;7.70;;;;;;;;;;4911686;29;20070;-87
2022/03/21 14:47:28;;;;;;;12.45;8.18;;;;;;;;;;4915936;29;20141;-87
2022/03/21 14:50:02;;;;;;;12.48;7.90;;;;;;;;;;4897629;29;20110;-86
2022/03/21 14:52:28;;;;;;;13.03;8.20;;;;;;;;;;4911332;29;20056;-86
2022/03/21 14:54:55;;;;;;;11.70;7.93;;;;;;;;;;4911365;29;20388;-87
2022/03/21 14:57:22;;;;;;;14.02;8.57;;;;;;;;;;4896869;29;20520;-87
2022/03/21 14:59:50;;;;;;;12.77;8.13;;;;;;;;;;4914559;29;20131;-86